createdAt,value
2022-10-23T00:00:39.565Z,3.00
2022-10-23T00:03:06.566Z,3.43
2022-10-23T00:05:33.809Z,3.10
2022-10-23T00:08:00.840Z,3.50
2022-10-23T00:10:28.448Z,3.33
2022-10-23T00:12:55.005Z,3.37
2022-10-23T00:15:22.949Z,3.00
2022-10-23T00:17:49.622Z,3.60
2022-10-23T00:20:17.425Z,3.40
2022-10-23T00:22:44.016Z,3.53
2022-10-23T00:25:10.979Z,3.50
2022-10-23T00:27:37.714Z,3.90
2022-10-23T00:30:05.779Z,3.77
2022-10-23T00:35:04.770Z,3.60
2022-10-23T00:37:31.433Z,3.37
2022-10-23T00:39:58.189Z,3.70
2022-10-23T00:42:27.130Z,3.30
2022-10-23T00:45:14.103Z,3.13
2022-10-23T00:47:40.749Z,3.30
2022-10-23T00:50:07.650Z,4.00
2022-10-23T00:52:37.732Z,4.17
2022-10-23T00:55:04.894Z,3.17
2022-10-23T00:57:31.612Z,3.60
2022-10-23T00:59:58.201Z,3.23
2022-10-23T01:02:24.897Z,3.50
2022-10-23T01:04:51.686Z,3.60
2022-10-23T01:07:27.108Z,3.70
2022-10-23T01:10:14.661Z,3.90
2022-10-23T01:13:19.677Z,3.40
2022-10-23T01:15:54.184Z,2.90
2022-10-23T01:18:40.873Z,3.83
2022-10-23T01:21:15.338Z,3.13
2022-10-23T01:23:53.345Z,3.30
2022-10-23T01:26:29.910Z,3.23
2022-10-23T01:29:03.240Z,3.03
2022-10-23T01:31:37.353Z,3.70
2022-10-23T01:34:10.207Z,3.40
2022-10-23T01:36:42.219Z,3.13
2022-10-23T01:39:12.508Z,3.27
2022-10-23T01:41:47.479Z,3.73
2022-10-23T01:44:22.343Z,3.40
2022-10-23T01:46:50.099Z,3.40
2022-10-23T01:49:17.792Z,3.43
2022-10-23T01:51:49.949Z,3.83
2022-10-23T01:54:17.429Z,3.33
2022-10-23T01:56:47.298Z,3.27
2022-10-23T01:59:17.103Z,3.10
2022-10-23T02:01:46.715Z,3.80
2022-10-23T02:04:17.724Z,3.10
2022-10-23T02:06:44.307Z,3.10
2022-10-23T02:09:11.219Z,3.60
2022-10-23T02:11:51.077Z,3.10
2022-10-23T02:14:44.484Z,3.50
2022-10-23T02:17:36.863Z,3.43
2022-10-23T02:20:14.215Z,3.50
2022-10-23T02:22:46.223Z,3.20
2022-10-23T02:25:19.808Z,3.43
2022-10-23T02:27:50.917Z,3.40
2022-10-23T02:30:19.823Z,3.47
2022-10-23T02:32:54.498Z,3.43
2022-10-23T02:35:23.687Z,3.17
2022-10-23T02:37:59.987Z,3.10
2022-10-23T02:40:36.718Z,3.33
2022-10-23T02:43:11.179Z,3.10
2022-10-23T02:45:46.558Z,4.20
2022-10-23T02:48:19.442Z,3.00
2022-10-23T02:50:54.429Z,3.40
2022-10-23T02:53:42.414Z,3.13
2022-10-23T02:56:45.474Z,3.40
2022-10-23T02:59:18.078Z,3.50
2022-10-23T03:01:53.038Z,3.40
2022-10-23T03:04:24.161Z,3.20
2022-10-23T03:06:51.458Z,3.30
2022-10-23T03:09:18.604Z,3.30
2022-10-23T03:11:45.318Z,3.40
2022-10-23T03:14:13.267Z,3.80
2022-10-23T03:16:39.814Z,3.40
2022-10-23T03:19:08.872Z,3.80
2022-10-23T03:21:35.656Z,3.50
2022-10-23T03:24:06.178Z,3.13
2022-10-23T03:26:37.957Z,3.60
2022-10-23T03:29:04.712Z,3.27
2022-10-23T03:31:31.358Z,3.43
2022-10-23T03:33:59.788Z,3.30
2022-10-23T03:36:26.362Z,3.50
2022-10-23T03:38:53.313Z,3.50
2022-10-23T03:41:20.798Z,3.87
2022-10-23T03:43:47.612Z,2.97
2022-10-23T03:46:14.258Z,3.60
2022-10-23T03:48:42.022Z,3.47
2022-10-23T03:51:08.613Z,3.60
2022-10-23T03:53:35.218Z,3.50
2022-10-23T03:56:04.548Z,3.60
2022-10-23T03:58:33.168Z,3.37
2022-10-23T04:00:59.865Z,3.63
2022-10-23T04:03:27.391Z,3.30
2022-10-23T04:05:54.007Z,3.60
2022-10-23T04:08:22.298Z,3.43
2022-10-23T04:10:51.980Z,4.13
2022-10-23T04:13:23.807Z,3.97
2022-10-23T04:15:52.091Z,3.90
2022-10-23T04:18:18.786Z,3.33
2022-10-23T04:20:51.281Z,3.83
2022-10-23T04:23:18.190Z,4.00
2022-10-23T04:28:14.334Z,3.70
2022-10-23T04:30:41.684Z,4.07
2022-10-23T04:33:10.598Z,3.73
2022-10-23T04:35:37.388Z,3.60
2022-10-23T04:38:04.008Z,3.70
2022-10-23T04:40:34.146Z,4.03
2022-10-23T04:43:00.835Z,3.33
2022-10-23T04:45:31.725Z,3.53
2022-10-23T04:47:58.324Z,4.13
2022-10-23T04:50:25.538Z,3.60
2022-10-23T04:53:27.041Z,4.35
2022-10-23T04:56:22.940Z,3.73
2022-10-23T04:58:55.290Z,3.73
2022-10-23T05:01:24.256Z,3.97
2022-10-23T05:03:51.237Z,3.93
2022-10-23T05:06:18.186Z,3.40
2022-10-23T05:09:14.201Z,3.80
2022-10-23T05:12:06.434Z,3.50
2022-10-23T05:14:33.081Z,3.47
2022-10-23T05:17:04.363Z,3.40
2022-10-23T05:19:38.352Z,3.90
2022-10-23T05:22:05.193Z,3.40
2022-10-23T05:24:49.670Z,3.40
2022-10-23T05:27:20.217Z,3.17
2022-10-23T05:29:46.873Z,3.27
2022-10-23T05:32:14.668Z,4.10
2022-10-23T05:34:42.728Z,3.80
2022-10-23T05:37:14.338Z,3.87
2022-10-23T05:39:41.742Z,4.50
2022-10-23T05:42:12.656Z,4.10
2022-10-23T05:44:40.383Z,4.20
2022-10-23T05:47:25.717Z,3.70
2022-10-23T05:49:52.325Z,4.33
2022-10-23T05:52:37.669Z,4.43
2022-10-23T05:55:25.790Z,4.30
2022-10-23T05:58:11.089Z,4.03
2022-10-23T06:01:00.034Z,4.90
2022-10-23T06:03:47.733Z,4.83
2022-10-23T06:06:14.377Z,4.60
2022-10-23T06:08:45.061Z,4.70
2022-10-23T06:11:14.104Z,4.77
2022-10-23T06:13:46.255Z,4.47
2022-10-23T06:16:19.881Z,4.07
2022-10-23T06:18:47.471Z,3.77
2022-10-23T06:21:16.687Z,3.97
2022-10-23T06:23:46.230Z,3.90
2022-10-23T06:26:51.362Z,3.87
2022-10-23T06:29:21.640Z,4.30
2022-10-23T06:31:50.001Z,4.13
2022-10-23T06:34:17.316Z,3.80
2022-10-23T06:36:45.751Z,4.17
2022-10-23T06:39:32.164Z,4.03
2022-10-23T06:42:25.299Z,4.00
2022-10-23T06:44:54.722Z,3.90
2022-10-23T06:47:53.251Z,3.67
2022-10-23T06:50:38.860Z,4.00
2022-10-23T06:53:12.379Z,4.00
2022-10-23T06:55:44.118Z,4.07
2022-10-23T06:58:10.976Z,3.93
2022-10-23T07:00:52.387Z,3.73
2022-10-23T07:03:18.984Z,4.30
2022-10-23T07:05:47.348Z,4.47
2022-10-23T07:08:14.676Z,4.07
2022-10-23T07:10:43.563Z,4.00
2022-10-23T07:13:11.224Z,4.20
2022-10-23T07:15:55.090Z,4.13
2022-10-23T07:18:24.596Z,4.00
2022-10-23T07:21:20.444Z,4.90
2022-10-23T07:23:48.611Z,4.63
2022-10-23T07:26:16.723Z,3.90
2022-10-23T07:28:45.001Z,4.40
2022-10-23T07:31:13.192Z,4.20
2022-10-23T07:34:04.662Z,4.13
2022-10-23T07:36:31.475Z,4.40
2022-10-23T07:38:58.172Z,3.90
2022-10-23T07:41:25.241Z,4.47
2022-10-23T07:43:51.862Z,4.60
2022-10-23T07:46:18.512Z,4.20
2022-10-23T07:48:45.606Z,4.60
2022-10-23T07:51:15.409Z,4.10
2022-10-23T07:53:45.635Z,3.90
2022-10-23T07:56:31.444Z,3.60
2022-10-23T07:59:18.315Z,3.67
2022-10-23T08:01:56.728Z,3.90
2022-10-23T08:04:34.182Z,3.63
2022-10-23T08:07:09.828Z,3.57
2022-10-23T08:09:41.338Z,3.83
2022-10-23T08:12:09.724Z,3.50
2022-10-23T08:14:36.463Z,3.50
2022-10-23T08:17:05.073Z,3.60
2022-10-23T08:19:54.746Z,3.97
2022-10-23T08:22:21.798Z,3.67
2022-10-23T08:24:48.500Z,3.40
2022-10-23T08:27:15.807Z,3.60
2022-10-23T08:29:45.587Z,3.40
2022-10-23T08:32:12.267Z,2.83
2022-10-23T08:34:54.059Z,3.10
2022-10-23T08:37:23.495Z,3.17
2022-10-23T08:39:53.229Z,2.77
2022-10-23T08:42:29.537Z,2.90
2022-10-23T08:45:14.331Z,3.40
2022-10-23T08:47:47.381Z,2.90
2022-10-23T08:50:59.357Z,3.23
2022-10-23T08:54:11.140Z,3.27
2022-10-23T08:56:39.610Z,2.90
2022-10-23T08:59:20.467Z,3.17
2022-10-23T09:01:52.336Z,3.17
2022-10-23T09:04:21.421Z,2.80
2022-10-23T09:06:47.941Z,2.90
2022-10-23T09:09:51.577Z,3.00
2022-10-23T09:12:21.640Z,2.87
2022-10-23T09:15:00.346Z,2.90
2022-10-23T09:17:26.905Z,2.60
2022-10-23T09:20:21.297Z,2.90
2022-10-23T09:22:49.494Z,2.50
2022-10-23T09:25:22.400Z,2.90
2022-10-23T09:27:54.777Z,2.90
2022-10-23T09:30:38.900Z,2.77
2022-10-23T09:33:16.258Z,2.53
2022-10-23T09:36:02.769Z,2.50
2022-10-23T09:38:36.008Z,2.90
2022-10-23T09:41:21.365Z,3.27
2022-10-23T09:43:48.169Z,3.37
2022-10-23T09:46:19.551Z,2.80
2022-10-23T09:48:46.103Z,2.63
2022-10-23T09:51:20.159Z,2.80
2022-10-23T09:53:49.670Z,2.57
2022-10-23T09:56:34.385Z,3.00
2022-10-23T09:59:13.161Z,2.60
2022-10-23T10:02:00.317Z,2.57
2022-10-23T10:04:59.201Z,2.40
2022-10-23T10:07:32.279Z,2.50
2022-10-23T10:10:01.347Z,2.27
2022-10-23T10:12:43.388Z,2.50
2022-10-23T10:15:19.144Z,3.70
2022-10-23T10:18:09.514Z,2.77
2022-10-23T10:20:46.114Z,2.60
2022-10-23T10:23:30.889Z,2.57
2022-10-23T10:26:13.748Z,2.33
2022-10-23T10:29:14.451Z,2.57
2022-10-23T10:31:43.968Z,2.43
2022-10-23T10:34:17.095Z,2.33
2022-10-23T10:36:46.585Z,2.43
2022-10-23T10:39:42.426Z,2.80
2022-10-23T10:42:35.259Z,2.50
2022-10-23T10:45:27.630Z,2.70
2022-10-23T10:48:12.565Z,2.37
2022-10-23T10:51:09.449Z,2.53
2022-10-23T10:54:00.422Z,2.67
2022-10-23T10:56:28.314Z,2.30
2022-10-23T10:59:10.599Z,2.70
2022-10-23T11:01:42.807Z,2.63
2022-10-23T11:04:57.840Z,2.73
2022-10-23T11:07:28.430Z,2.50
2022-10-23T11:09:56.341Z,2.50
2022-10-23T11:12:27.532Z,2.70
2022-10-23T11:14:54.241Z,2.30
2022-10-23T11:17:27.749Z,2.30
2022-10-23T11:20:10.210Z,2.47
2022-10-23T11:22:52.045Z,2.60
2022-10-23T11:25:40.569Z,2.53
2022-10-23T11:28:28.290Z,2.60
2022-10-23T11:31:13.760Z,2.53
2022-10-23T11:33:55.295Z,2.50
2022-10-23T11:36:48.588Z,2.27
2022-10-23T11:39:29.363Z,2.50
2022-10-23T11:42:06.338Z,2.63
2022-10-23T11:44:49.756Z,2.50
2022-10-23T11:47:40.409Z,2.27
2022-10-23T11:50:07.151Z,2.37
2022-10-23T11:52:45.437Z,2.43
2022-10-23T11:55:22.410Z,2.13
2022-10-23T11:58:04.451Z,2.80
2022-10-23T12:00:33.488Z,2.47
2022-10-23T12:03:00.916Z,2.13
2022-10-23T12:05:37.699Z,2.93
2022-10-23T12:08:08.235Z,2.70
2022-10-23T12:10:46.448Z,2.20
2022-10-23T12:13:28.868Z,2.20
2022-10-23T12:15:58.497Z,2.30
2022-10-23T12:18:27.541Z,2.50
2022-10-23T12:20:58.964Z,2.00
2022-10-23T12:23:38.443Z,2.77
2022-10-23T12:26:17.224Z,2.53
2022-10-23T12:28:50.769Z,2.40
2022-10-23T12:31:35.816Z,2.47
2022-10-23T12:34:08.400Z,2.80
2022-10-23T12:36:41.468Z,2.10
2022-10-23T12:39:27.164Z,2.00
2022-10-23T12:41:53.983Z,2.20
2022-10-23T12:44:25.360Z,1.83
2022-10-23T12:46:58.246Z,2.20
2022-10-23T12:49:27.650Z,2.27
2022-10-23T12:52:05.576Z,1.87
2022-10-23T12:54:39.295Z,1.97
2022-10-23T12:57:26.938Z,2.17
2022-10-23T13:00:00.178Z,2.00
2022-10-23T13:02:29.363Z,2.60
2022-10-23T13:04:58.614Z,2.33
2022-10-23T13:07:30.283Z,2.30
2022-10-23T13:10:00.039Z,2.30
2022-10-23T13:12:33.981Z,2.20
2022-10-23T13:15:05.703Z,2.43
2022-10-23T13:17:41.648Z,2.40
2022-10-23T13:20:34.190Z,2.10
2022-10-23T13:23:21.738Z,1.90
2022-10-23T13:26:04.602Z,1.90
2022-10-23T13:28:45.513Z,2.23
2022-10-23T13:31:14.876Z,2.40
2022-10-23T13:34:04.380Z,2.03
2022-10-23T13:36:35.599Z,2.20
2022-10-23T13:39:13.470Z,1.97
2022-10-23T13:41:45.433Z,2.27
2022-10-23T13:44:14.594Z,2.00
2022-10-23T13:46:41.944Z,2.20
2022-10-23T13:49:08.645Z,1.80
2022-10-23T13:51:52.971Z,2.10
2022-10-23T13:54:22.241Z,2.00
2022-10-23T13:56:49.312Z,1.70
2022-10-23T13:59:16.624Z,2.10
2022-10-23T14:01:44.654Z,1.87
2022-10-23T14:04:14.714Z,2.23
2022-10-23T14:06:42.103Z,1.90
2022-10-23T14:09:12.694Z,2.33
2022-10-23T14:11:39.935Z,1.93
2022-10-23T14:14:06.925Z,2.07
2022-10-23T14:16:36.639Z,1.80
2022-10-23T14:19:03.581Z,1.70
2022-10-23T14:21:30.451Z,1.97
2022-10-23T14:23:57.383Z,2.13
2022-10-23T14:26:27.517Z,2.00
2022-10-23T14:28:59.566Z,1.90
2022-10-23T14:31:29.932Z,1.90
2022-10-23T14:33:58.689Z,1.90
2022-10-23T14:36:30.880Z,1.97
2022-10-23T14:39:05.447Z,2.13
2022-10-23T14:41:32.143Z,2.10
2022-10-23T14:43:58.766Z,1.90
2022-10-23T14:46:25.554Z,1.83
2022-10-23T14:48:57.428Z,2.10
2022-10-23T14:51:28.762Z,1.93
2022-10-23T14:53:59.447Z,1.70
2022-10-23T14:56:26.531Z,1.80
2022-10-23T14:58:53.149Z,2.00
2022-10-23T15:01:19.960Z,1.90
2022-10-23T15:03:46.773Z,2.30
2022-10-23T15:06:17.530Z,1.97
2022-10-23T15:08:45.143Z,2.10
2022-10-23T15:11:12.793Z,1.90
2022-10-23T15:13:42.222Z,1.70
2022-10-23T15:16:10.463Z,1.93
2022-10-23T15:21:05.958Z,2.10
2022-10-23T15:23:34.651Z,1.80
2022-10-23T15:26:03.868Z,1.97
2022-10-23T15:28:30.941Z,1.80
2022-10-23T15:30:57.862Z,1.70
2022-10-23T15:33:24.552Z,1.70
2022-10-23T15:35:51.844Z,1.90
2022-10-23T15:38:19.341Z,1.90
2022-10-23T15:40:46.537Z,1.60
2022-10-23T15:43:14.443Z,2.17
2022-10-23T15:45:43.110Z,1.90
2022-10-23T15:48:15.794Z,2.00
2022-10-23T15:50:43.104Z,2.00
2022-10-23T15:53:09.754Z,1.90
2022-10-23T15:55:42.804Z,2.30
2022-10-23T15:58:09.747Z,1.90
2022-10-23T16:00:38.198Z,2.00
2022-10-23T16:03:04.866Z,1.90
2022-10-23T16:05:31.500Z,2.07
2022-10-23T16:08:00.480Z,2.13
2022-10-23T16:10:27.148Z,2.20
2022-10-23T16:12:53.852Z,2.20
2022-10-23T16:15:20.417Z,2.03
2022-10-23T16:17:47.053Z,1.70
2022-10-23T16:20:21.037Z,2.37
2022-10-23T16:22:47.772Z,2.00
2022-10-23T16:25:14.583Z,1.90
2022-10-23T16:27:41.476Z,1.97
2022-10-23T16:30:14.146Z,2.30
2022-10-23T16:32:41.432Z,2.10
2022-10-23T16:35:12.315Z,2.13
2022-10-23T16:37:53.064Z,2.20
2022-10-23T16:40:20.889Z,2.20
2022-10-23T16:43:06.447Z,2.10
2022-10-23T16:45:40.196Z,2.83
2022-10-23T16:48:06.970Z,2.27
2022-10-23T16:50:33.734Z,3.00
2022-10-23T16:53:07.746Z,2.47
2022-10-23T16:55:34.383Z,2.27
2022-10-23T16:58:01.104Z,2.60
2022-10-23T17:00:34.834Z,3.13
2022-10-23T17:03:04.877Z,2.10
2022-10-23T17:05:35.384Z,2.60
2022-10-23T17:08:06.676Z,2.07
2022-10-23T17:10:33.326Z,2.57
2022-10-23T17:13:00.005Z,2.30
2022-10-23T17:15:26.746Z,1.97
2022-10-23T17:17:53.862Z,1.93
2022-10-23T17:20:20.409Z,2.50
2022-10-23T17:22:47.053Z,2.90
2022-10-23T17:25:13.797Z,3.00
2022-10-23T17:27:40.459Z,2.30
2022-10-23T17:30:12.373Z,2.80
2022-10-23T17:32:44.201Z,2.20
2022-10-23T17:35:11.087Z,2.80
2022-10-23T17:37:37.744Z,2.03
2022-10-23T17:40:06.654Z,2.50
2022-10-23T17:42:33.210Z,2.43
2022-10-23T17:44:59.885Z,2.70
2022-10-23T17:47:26.488Z,2.30
2022-10-23T17:49:53.080Z,2.57
2022-10-23T17:52:19.671Z,2.30
2022-10-23T17:54:46.205Z,2.30
2022-10-23T17:57:12.961Z,2.40
2022-10-23T17:59:39.565Z,2.63
2022-10-23T18:02:07.137Z,2.30
2022-10-23T18:04:34.499Z,2.53
2022-10-23T18:07:01.093Z,2.87
2022-10-23T18:09:27.796Z,2.87
2022-10-23T18:11:54.471Z,2.97
2022-10-23T18:14:26.239Z,3.83
2022-10-23T18:16:55.242Z,2.63
2022-10-23T18:19:21.826Z,4.67
2022-10-23T18:21:48.925Z,4.07
2022-10-23T18:24:17.036Z,2.70
2022-10-23T18:26:44.275Z,4.13
2022-10-23T18:29:12.891Z,4.07
2022-10-23T18:31:39.968Z,3.90
2022-10-23T18:34:26.746Z,2.93
2022-10-23T18:36:54.630Z,2.60
2022-10-23T18:39:25.620Z,3.00
2022-10-23T18:41:54.958Z,3.00
2022-10-23T18:44:22.423Z,2.40
2022-10-23T18:46:49.825Z,2.43
2022-10-23T18:49:18.109Z,2.60
2022-10-23T18:51:44.980Z,3.40
2022-10-23T18:54:14.213Z,2.57
2022-10-23T18:56:40.895Z,2.73
2022-10-23T18:59:12.405Z,2.87
2022-10-23T19:01:39.508Z,2.90
2022-10-23T19:04:06.606Z,3.70
2022-10-23T19:06:35.179Z,3.20
2022-10-23T19:09:05.051Z,2.90
2022-10-23T19:11:31.646Z,3.40
2022-10-23T19:14:00.547Z,2.73
2022-10-23T19:16:31.207Z,3.20
2022-10-23T19:19:01.554Z,3.23
2022-10-23T19:21:31.704Z,3.37
2022-10-23T19:24:04.461Z,3.57
2022-10-23T19:26:31.450Z,3.60
2022-10-23T19:28:58.572Z,3.50
2022-10-23T19:31:26.459Z,3.30
2022-10-23T19:33:53.492Z,3.30
2022-10-23T19:36:23.505Z,3.33
2022-10-23T19:38:50.353Z,3.47
2022-10-23T19:41:18.352Z,3.47
2022-10-23T19:43:45.031Z,3.70
2022-10-23T19:46:12.297Z,3.77
2022-10-23T19:48:42.396Z,3.10
2022-10-23T19:51:09.478Z,3.00
2022-10-23T19:53:36.406Z,2.93
2022-10-23T19:56:05.311Z,3.27
2022-10-23T19:58:31.970Z,3.60
2022-10-23T20:00:58.586Z,3.30
2022-10-23T20:03:25.261Z,3.23
2022-10-23T20:05:51.886Z,3.30
2022-10-23T20:08:18.500Z,3.33
2022-10-23T20:10:46.585Z,3.27
2022-10-23T20:13:19.990Z,3.50
2022-10-23T20:15:47.240Z,3.43
2022-10-23T20:18:13.829Z,3.50
2022-10-23T20:20:41.783Z,3.33
2022-10-23T20:23:08.929Z,3.90
2022-10-23T20:25:37.609Z,3.53
2022-10-23T20:28:04.565Z,3.53
2022-10-23T20:30:31.150Z,4.00
2022-10-23T20:32:57.913Z,3.60
2022-10-23T20:35:24.592Z,3.57
2022-10-23T20:37:53.453Z,4.37
2022-10-23T20:40:20.037Z,3.83
2022-10-23T20:42:46.635Z,3.47
2022-10-23T20:45:13.230Z,3.23
2022-10-23T20:47:39.860Z,2.90
2022-10-23T20:50:07.055Z,3.90
2022-10-23T20:55:05.414Z,4.00
2022-10-23T20:57:31.979Z,3.20
2022-10-23T20:59:59.277Z,3.50
2022-10-23T21:02:25.989Z,3.30
2022-10-23T21:04:52.600Z,3.23
2022-10-23T21:07:20.750Z,3.43
2022-10-23T21:09:47.393Z,3.20
2022-10-23T21:12:13.968Z,3.30
2022-10-23T21:14:40.613Z,3.23
2022-10-23T21:17:08.739Z,3.90
2022-10-23T21:19:35.346Z,3.20
2022-10-23T21:22:02.033Z,3.10
2022-10-23T21:24:28.599Z,2.70
2022-10-23T21:26:55.184Z,2.90
2022-10-23T21:29:21.788Z,3.13
2022-10-23T21:31:56.947Z,3.10
2022-10-23T21:34:24.337Z,2.77
2022-10-23T21:37:11.950Z,2.43
2022-10-23T21:39:38.000Z,2.30
2022-10-23T21:42:04.787Z,2.30
2022-10-23T21:44:31.352Z,3.20
2022-10-23T21:46:57.899Z,2.57
2022-10-23T21:49:24.468Z,2.40
2022-10-23T21:51:51.038Z,2.50
2022-10-23T21:54:17.659Z,2.70
2022-10-23T21:56:45.373Z,2.50
2022-10-23T21:59:14.539Z,3.00
2022-10-23T22:01:45.343Z,2.70
2022-10-23T22:04:14.217Z,2.90
2022-10-23T22:06:47.825Z,2.40
2022-10-23T22:09:16.653Z,2.53
2022-10-23T22:11:43.333Z,2.70
2022-10-23T22:14:12.052Z,3.30
2022-10-23T22:16:38.749Z,2.77
2022-10-23T22:19:05.334Z,2.60
2022-10-23T22:21:31.997Z,3.00
2022-10-23T22:24:00.205Z,2.60
2022-10-23T22:26:30.265Z,2.73
2022-10-23T22:28:59.652Z,2.80
2022-10-23T22:31:29.475Z,2.70
2022-10-23T22:33:56.681Z,2.87
2022-10-23T22:36:23.531Z,2.67
2022-10-23T22:38:50.088Z,2.70
2022-10-23T22:41:17.303Z,2.70
2022-10-23T22:43:44.326Z,3.40
2022-10-23T22:46:16.404Z,2.13
2022-10-23T22:48:43.739Z,2.90
2022-10-23T22:51:15.839Z,2.20
2022-10-23T22:53:43.530Z,2.23
2022-10-23T22:56:13.217Z,2.60
2022-10-23T22:58:40.039Z,2.70
2022-10-23T23:01:16.564Z,2.30
2022-10-23T23:03:43.308Z,2.40
2022-10-23T23:06:12.655Z,2.40
2022-10-23T23:08:40.170Z,2.60
2022-10-23T23:11:08.407Z,2.53
2022-10-23T23:13:35.348Z,2.80
2022-10-23T23:16:02.659Z,2.77
2022-10-23T23:18:29.842Z,2.60
2022-10-23T23:21:04.007Z,2.83
2022-10-23T23:23:30.979Z,2.97
2022-10-23T23:25:58.128Z,2.57
2022-10-23T23:28:24.867Z,2.30
2022-10-23T23:31:02.752Z,2.77
2022-10-23T23:33:29.327Z,2.70
2022-10-23T23:35:55.971Z,2.80
2022-10-23T23:38:23.013Z,2.83
2022-10-23T23:40:57.813Z,3.40
2022-10-23T23:43:24.438Z,2.70
2022-10-23T23:45:53.857Z,2.70
2022-10-23T23:48:20.524Z,2.83
2022-10-23T23:50:47.167Z,2.40
2022-10-23T23:53:13.812Z,2.97
2022-10-23T23:55:40.625Z,2.60
2022-10-23T23:58:07.498Z,3.40
